Time;durP1;ratioP1;P1;durP2;ratioP2;P2;SDS_P1;SDS_P2;PMS_P1;PMS_P2;Temp;Humidity;BMP_temperature;BMP_pressure;BME280_temperature;BME280_humidity;BME280_pressure;Samples;Min_cycle;Max_cycle;Signal;HPM_P1;HPM_P2
2022/04/13 00:02:23;;;;;;;5.43;2.50;;;18.90;52.60;;;-142.21;84.25;112049.66;5064597;28;20483;-74
2022/04/13 00:04:50;;;;;;;4.57;2.43;;;18.90;52.80;;;-142.21;84.91;112049.66;5058010;28;21030;-74
2022/04/13 00:07:17;;;;;;;3.00;2.50;;;18.90;52.90;;;-142.21;86.92;112049.66;5073975;28;20439;-74
2022/04/13 00:09:44;;;;;;;4.27;2.73;;;18.90;52.90;;;-142.21;85.94;112049.66;5065840;28;20487;-74
2022/04/13 00:12:12;;;;;;;4.53;2.30;;;18.80;53.10;;;-142.21;85.88;112049.66;5054980;28;20551;-74
2022/04/13 00:14:39;;;;;;;2.53;2.33;;;18.70;53.00;;;-142.21;85.87;112049.66;5058162;28;20554;-74
2022/04/13 00:17:10;;;;;;;2.50;2.03;;;18.70;53.00;;;-142.21;87.33;112049.66;5055994;28;20444;-74
2022/04/13 00:19:37;;;;;;;3.10;2.50;;;18.80;53.60;;;-142.21;85.85;112049.66;5053265;28;20472;-74
2022/04/13 00:22:05;;;;;;;3.43;2.20;;;18.70;53.10;;;-142.21;85.30;112049.66;5058107;28;20476;-74
2022/04/13 00:24:32;;;;;;;2.40;2.20;;;18.70;53.20;;;-142.21;86.16;112049.66;5058204;28;20476;-74
2022/04/13 00:26:59;;;;;;;2.50;2.30;;;18.70;53.30;;;-142.21;86.02;112049.66;5060473;28;20548;-74
2022/04/13 00:29:29;;;;;;;4.10;2.50;;;18.70;53.40;;;-142.21;85.06;112049.66;5044085;28;20963;-74
2022/04/13 00:31:58;;;;;;;4.57;2.40;;;18.70;53.30;;;-142.21;85.13;112049.66;5064159;28;20979;-74
2022/04/13 00:34:26;;;;;;;3.60;2.50;;;18.60;53.40;;;-142.21;86.04;112049.66;5053251;28;20455;-74
2022/04/13 00:36:56;;;;;;;3.50;2.70;;;18.60;53.60;;;-142.21;85.26;112049.66;5058464;28;20759;-74
2022/04/13 00:39:23;;;;;;;2.40;2.20;;;18.60;53.50;;;-142.21;85.38;112049.66;5053529;28;20490;-74
2022/04/13 00:41:58;;;;;;;4.40;2.73;;;18.50;53.80;;;-142.21;86.25;112049.66;5053366;28;20487;-74
2022/04/13 00:44:28;;;;;;;3.27;2.50;;;18.50;54.40;;;-142.21;85.76;112049.66;5055234;28;20455;-74
2022/04/13 00:46:56;;;;;;;4.50;3.07;;;18.40;54.10;;;-142.21;86.02;112049.66;5057635;28;20427;-74
2022/04/13 00:49:26;;;;;;;4.20;2.57;;;18.30;54.10;;;-142.21;85.89;112049.66;5058282;28;20452;-74
2022/04/13 00:51:53;;;;;;;6.30;2.80;;;18.30;54.70;;;-142.21;86.24;112049.66;5055703;28;20968;-73
2022/04/13 00:54:25;;;;;;;4.47;2.40;;;18.20;54.60;;;-142.21;87.02;112049.66;5071898;28;20452;-74
2022/04/13 00:56:56;;;;;;;4.10;2.40;;;18.10;54.80;;;-142.21;86.81;112049.66;5061146;28;20531;-74
2022/04/13 00:59:26;;;;;;;3.63;2.30;;;17.90;54.80;;;-142.21;87.23;112049.66;5055609;28;20445;-74
2022/04/13 01:01:58;;;;;;;5.97;2.40;;;17.90;56.30;;;-142.21;87.05;112049.66;5069070;28;20839;-73
2022/04/13 01:04:29;;;;;;;4.57;3.17;;;17.80;55.80;;;-142.21;87.61;112049.66;5049171;28;20437;-74
2022/04/13 01:06:57;;;;;;;4.13;2.60;;;17.70;55.60;;;-142.21;87.25;112049.66;5053414;28;20767;-74
2022/04/13 01:09:25;;;;;;;2.70;2.30;;;17.80;55.40;;;-142.21;88.04;112049.66;5041925;28;20559;-74
2022/04/13 01:11:53;;;;;;;4.47;3.00;;;17.80;55.30;;;-142.21;88.74;112049.66;5053398;28;20544;-74
2022/04/13 01:14:20;;;;;;;2.63;2.43;;;17.90;55.60;;;-142.21;88.32;112049.66;5056139;28;20444;-74
2022/04/13 01:16:47;;;;;;;4.47;2.47;;;17.80;55.30;;;-142.21;89.01;112049.66;5054104;28;20875;-74
2022/04/13 01:19:17;;;;;;;2.93;2.33;;;17.90;55.60;;;-142.21;88.13;112049.66;5052989;28;20452;-74
2022/04/13 01:21:52;;;;;;;2.53;2.20;;;17.80;55.30;;;-142.21;88.00;112049.66;5056025;28;20449;-74
2022/04/13 01:24:22;;;;;;;2.90;2.30;;;17.90;55.50;;;-142.21;88.30;112049.66;5056244;28;20436;-74
2022/04/13 01:26:49;;;;;;;3.73;2.50;;;17.90;55.40;;;-142.21;87.60;112049.66;5053584;28;20452;-73
2022/04/13 01:29:17;;;;;;;3.37;2.53;;;17.90;55.70;;;-142.21;88.24;112049.66;5040742;28;20441;-74
2022/04/13 01:31:45;;;;;;;2.57;2.30;;;17.90;55.20;;;-142.21;88.14;112049.66;5045195;28;20476;-74
2022/04/13 01:34:13;;;;;;;2.60;2.40;;;17.80;55.40;;;-142.21;87.72;112049.66;5052645;28;20436;-73
2022/04/13 01:36:40;;;;;;;3.77;2.37;;;17.80;55.60;;;-142.21;88.55;112049.66;5047067;28;20542;-74
2022/04/13 01:39:08;;;;;;;4.43;3.00;;;17.70;55.40;;;-142.21;88.59;112049.66;5045393;28;20452;-74
2022/04/13 01:41:37;;;;;;;2.97;2.67;;;17.70;56.20;;;-142.21;89.59;112049.66;5045231;28;20457;-74
2022/04/13 01:44:05;;;;;;;3.23;2.47;;;17.70;55.50;;;-142.21;89.59;112049.66;5047113;28;20837;-74
2022/04/13 01:46:32;;;;;;;2.87;2.30;;;17.70;55.90;;;-142.21;90.25;112049.66;5047640;28;20449;-74
2022/04/13 01:48:59;;;;;;;4.77;2.60;;;17.70;55.70;;;-142.21;89.92;112049.66;5051536;28;21070;-74
2022/04/13 01:51:26;;;;;;;2.57;2.13;;;17.80;55.70;;;-142.21;90.99;112049.66;5034827;28;20508;-74
2022/04/13 01:53:54;;;;;;;2.93;2.43;;;17.80;56.90;;;-142.21;90.47;112049.66;5034963;28;20494;-74
2022/04/13 01:56:21;;;;;;;4.13;2.70;;;17.80;56.40;;;-142.21;89.49;112049.66;5054931;28;20936;-74
2022/04/13 01:58:49;;;;;;;2.47;2.20;;;17.80;56.00;;;-142.21;90.74;112049.66;5036186;28;20471;-72
2022/04/13 02:01:17;;;;;;;4.43;2.60;;;17.80;56.20;;;-142.21;89.61;112049.66;5051504;28;20451;-74
2022/04/13 02:03:44;;;;;;;3.47;2.37;;;17.80;56.10;;;-142.21;89.80;112049.66;5057980;28;20890;-74
2022/04/13 02:06:12;;;;;;;5.73;2.60;;;17.80;56.00;;;-142.21;89.61;112049.66;5061389;28;20450;-74
2022/04/13 02:08:39;;;;;;;4.33;2.50;;;17.80;56.10;;;-142.21;89.83;112049.66;5053939;28;20507;-74
2022/04/13 02:11:06;;;;;;;3.87;2.57;;;17.80;56.00;;;-142.21;89.89;112049.66;5063649;28;20946;-74
2022/04/13 02:13:33;;;;;;;3.80;2.60;;;17.80;56.00;;;-142.21;89.44;112049.66;5056560;28;21156;-73
2022/04/13 02:16:02;;;;;;;2.63;2.40;;;17.80;56.00;;;-142.21;90.83;112049.66;5054832;28;20444;-74
2022/04/13 02:18:29;;;;;;;2.70;2.40;;;17.80;56.50;;;-142.21;90.69;112049.66;5051484;28;20452;-74
2022/04/13 02:20:56;;;;;;;3.67;2.70;;;17.80;56.30;;;-142.21;89.94;112049.66;5053422;28;20800;-74
2022/04/13 02:23:23;;;;;;;3.27;2.53;;;17.80;56.40;;;-142.21;90.52;112049.66;5052759;28;20484;-74
2022/04/13 02:25:50;;;;;;;4.10;2.80;;;17.80;56.50;;;-142.21;91.28;112049.66;5061888;28;20436;-74
2022/04/13 02:28:18;;;;;;;3.73;2.60;;;17.80;56.30;;;-142.21;90.35;112049.66;5052142;28;20459;-74
2022/04/13 02:30:45;;;;;;;5.60;2.77;;;17.80;56.30;;;-142.21;90.88;112049.66;5056346;28;20461;-73
2022/04/13 02:33:13;;;;;;;2.87;2.63;;;17.80;56.20;;;-142.21;90.97;112049.66;5067863;28;20443;-74
2022/04/13 02:35:40;;;;;;;3.70;2.80;;;17.90;56.60;;;-142.21;90.83;112049.66;5058819;28;20483;-74
2022/04/13 02:38:08;;;;;;;3.77;2.60;;;17.80;57.00;;;-142.21;91.31;112049.66;5040608;28;20456;-74
2022/04/13 02:40:35;;;;;;;2.77;2.57;;;17.70;56.70;;;-142.21;90.49;112049.66;5031362;28;20926;-74
2022/04/13 02:43:02;;;;;;;5.63;2.73;;;17.80;56.50;;;-142.21;90.79;112049.66;5051528;28;20490;-74
2022/04/13 02:45:30;;;;;;;3.20;2.70;;;17.80;56.70;;;-142.21;91.46;112049.66;5063494;28;20645;-74
2022/04/13 02:47:57;;;;;;;3.97;2.70;;;17.70;57.10;;;-142.21;91.63;112049.66;5063563;28;20447;-74
2022/04/13 02:50:25;;;;;;;3.17;2.60;;;17.60;57.00;;;-142.21;91.69;112049.66;5064795;28;20502;-74
2022/04/13 02:52:54;;;;;;;3.30;3.00;;;17.60;57.10;;;-142.21;91.56;112049.66;5054920;28;20448;-75
2022/04/13 02:55:22;;;;;;;5.27;3.03;;;17.60;56.90;;;-142.21;91.31;112049.66;5074824;28;20453;-74
2022/04/13 02:57:49;;;;;;;4.23;2.67;;;17.60;57.00;;;-142.21;91.79;112049.66;5054662;28;20531;-74
2022/04/13 03:00:17;;;;;;;3.03;2.73;;;17.50;56.90;;;-142.21;91.55;112049.66;5056175;28;20448;-74
2022/04/13 03:02:45;;;;;;;4.97;2.97;;;17.50;57.40;;;-142.21;91.62;112049.66;5054930;28;20494;-73
2022/04/13 03:05:13;;;;;;;4.27;2.87;;;17.40;57.20;;;-142.21;92.10;112049.66;5053573;28;20452;-74
2022/04/13 03:07:42;;;;;;;4.20;3.03;;;17.30;57.40;;;-142.21;92.11;112049.66;5054934;28;20452;-74
2022/04/13 03:10:09;;;;;;;3.27;2.77;;;17.30;57.20;;;-142.21;92.07;112049.66;5058225;28;20530;-75
2022/04/13 03:12:37;;;;;;;3.43;2.80;;;17.30;57.20;;;-142.21;92.22;112049.66;5067120;28;20500;-74
2022/04/13 03:15:06;;;;;;;4.00;2.80;;;17.20;57.40;;;-142.21;92.68;112049.66;5072821;28;20443;-74
2022/04/13 03:17:33;;;;;;;3.40;2.70;;;17.20;57.70;;;-142.21;93.24;112049.66;5065212;28;20447;-74
2022/04/13 03:20:00;;;;;;;4.53;2.60;;;17.10;57.80;;;-142.21;94.35;112049.66;5074050;28;20451;-74
2022/04/13 03:22:28;;;;;;;3.33;2.93;;;17.00;57.90;;;-142.21;94.25;112049.66;5063096;28;20448;-75
2022/04/13 03:24:56;;;;;;;4.03;2.87;;;17.00;57.90;;;-142.21;95.26;112049.66;5071631;28;20526;-74
2022/04/13 03:27:24;;;;;;;7.93;3.13;;;17.00;58.80;;;-142.21;95.35;112049.66;5054761;28;20456;-74
2022/04/13 03:29:51;;;;;;;3.47;2.80;;;16.90;58.30;;;-142.21;96.85;112049.66;5067149;28;20444;-74
2022/04/13 03:32:18;;;;;;;3.30;2.50;;;16.90;59.10;;;-142.21;96.44;112049.66;5066044;28;20447;-74
2022/04/13 03:34:45;;;;;;;3.40;2.90;;;16.80;58.80;;;-142.21;95.73;112049.66;5074383;28;20443;-73
2022/04/13 03:37:12;;;;;;;2.90;2.60;;;16.80;58.50;;;-142.21;95.84;112049.66;5055635;28;20447;-73
2022/04/13 03:39:39;;;;;;;3.70;2.50;;;16.80;58.70;;;-142.21;95.52;112049.66;5061875;28;20955;-74
2022/04/13 03:42:09;;;;;;;3.40;2.80;;;16.70;58.30;;;-142.21;95.23;112049.66;5058819;28;20464;-74
2022/04/13 03:44:36;;;;;;;4.47;3.17;;;16.70;58.50;;;-142.21;94.75;112049.66;5054777;28;20487;-74
2022/04/13 03:47:05;;;;;;;4.00;3.10;;;16.70;58.40;;;-142.21;94.76;112049.66;5063948;28;20793;-74
2022/04/13 03:49:32;;;;;;;3.90;3.00;;;16.70;58.50;;;-142.21;94.90;112049.66;5066899;28;20447;-74
2022/04/13 03:51:59;;;;;;;3.43;2.73;;;16.70;58.50;;;-142.21;94.32;112049.66;5054122;28;20531;-74
2022/04/13 03:54:26;;;;;;;3.27;2.53;;;16.60;58.30;;;-142.21;94.41;112049.66;5053839;28;20506;-74
2022/04/13 03:56:54;;;;;;;3.93;2.70;;;16.60;58.30;;;-142.21;94.61;112049.66;5061480;28;20454;-74
2022/04/13 03:59:24;;;;;;;3.63;2.90;;;16.60;58.30;;;-142.21;94.60;112049.66;5062836;28;20449;-74
2022/04/13 04:01:51;;;;;;;3.70;2.60;;;16.60;58.50;;;-142.21;94.70;112049.66;5055686;28;20472;-74
2022/04/13 04:04:19;;;;;;;4.37;2.93;;;16.50;58.30;;;-142.21;94.08;112049.66;5064958;28;20484;-74
2022/04/13 04:06:46;;;;;;;3.13;2.70;;;16.50;58.80;;;-142.21;94.15;112049.66;5061675;28;20540;-74
2022/04/13 04:09:13;;;;;;;8.97;3.23;;;16.40;58.40;;;-142.21;95.26;112049.66;5061307;28;20889;-74
2022/04/13 04:11:40;;;;;;;3.27;2.60;;;16.40;59.10;;;-142.21;95.10;112049.66;5054352;28;20466;-74
2022/04/13 04:14:08;;;;;;;3.37;3.03;;;16.40;58.80;;;-142.21;95.45;112049.66;5059892;28;20470;-74
2022/04/13 04:16:36;;;;;;;3.97;2.83;;;16.30;59.40;;;-142.21;95.53;112049.66;5065239;28;20458;-74
2022/04/13 04:19:03;;;;;;;3.00;2.50;;;16.20;59.50;;;-142.21;95.72;112049.66;5061615;28;20449;-74
2022/04/13 04:21:30;;;;;;;4.23;2.60;;;16.20;59.40;;;-142.21;95.77;112049.66;5053890;28;20502;-74
2022/04/13 04:23:58;;;;;;;3.07;2.50;;;16.20;59.80;;;-142.21;95.52;112049.66;5073601;28;20483;-74
2022/04/13 04:26:25;;;;;;;3.83;2.77;;;16.20;59.10;;;-142.21;95.63;112049.66;5061214;28;20550;-74
2022/04/13 04:28:52;;;;;;;3.60;2.63;;;16.20;58.90;;;-142.21;96.27;112049.66;5072745;28;20444;-74
2022/04/13 04:31:49;;;;;;;5.87;3.00;;;16.20;59.40;;;-142.21;97.12;112049.66;5060438;28;20456;-74
2022/04/13 04:34:08;;;;;;;3.50;2.93;;;16.10;59.90;;;-142.21;97.04;112049.66;5066323;28;20437;-74
2022/04/13 04:36:35;;;;;;;3.07;2.70;;;16.00;60.70;;;-142.21;96.64;112049.66;5061301;28;20456;-74
2022/04/13 04:39:03;;;;;;;3.80;3.30;;;16.00;60.40;;;-142.21;96.49;112049.66;5053303;28;20452;-74
2022/04/13 04:41:30;;;;;;;3.10;2.70;;;16.00;60.10;;;-142.21;96.23;112049.66;5055678;28;20456;-74
2022/04/13 04:43:57;;;;;;;4.80;2.97;;;15.90;60.10;;;-142.21;96.37;112049.66;5061115;28;20516;-74
2022/04/13 04:46:24;;;;;;;6.00;2.90;;;15.90;59.90;;;-142.21;96.11;112049.66;5062914;28;20452;-74
2022/04/13 04:48:51;;;;;;;3.80;2.60;;;16.00;59.70;;;-142.21;96.41;112049.66;5055326;28;20440;-74
2022/04/13 04:51:20;;;;;;;5.13;3.10;;;15.90;60.20;;;-142.21;96.43;112049.66;5054358;28;20951;-74
2022/04/13 04:53:48;;;;;;;2.90;2.57;;;15.90;60.40;;;-142.21;96.21;112049.66;5059205;28;20444;-74
2022/04/13 04:56:15;;;;;;;3.00;2.50;;;15.90;60.00;;;-142.21;96.30;112049.66;5052637;28;20559;-74
2022/04/13 04:58:42;;;;;;;3.63;2.80;;;15.80;59.80;;;-142.21;97.09;112049.66;5053562;28;20462;-74
2022/04/13 05:01:10;;;;;;;3.20;2.40;;;15.80;60.20;;;-142.21;96.65;112049.66;5064411;28;20531;-74
2022/04/13 05:03:38;;;;;;;4.30;2.67;;;15.70;59.90;;;-142.21;98.37;112049.66;5060753;28;20488;-74
2022/04/13 05:06:05;;;;;;;5.50;2.97;;;15.70;60.40;;;-142.21;100.00;112049.66;5053680;28;20444;-74
2022/04/13 05:08:34;;;;;;;3.80;2.63;;;15.70;60.80;;;-142.21;98.57;112049.66;5054112;28;20543;-74
2022/04/13 05:11:03;;;;;;;3.53;2.70;;;15.70;60.70;;;-142.21;98.65;112049.66;5055302;28;20456;-74
2022/04/13 05:13:30;;;;;;;3.70;2.87;;;15.70;61.10;;;-142.21;98.58;112049.66;5070211;28;20537;-74
2022/04/13 05:15:57;;;;;;;6.03;3.07;;;15.70;61.10;;;-142.21;98.43;112049.66;5052849;28;20448;-74
2022/04/13 05:18:24;;;;;;;3.80;2.70;;;15.70;60.70;;;-142.21;98.42;112049.66;5051950;28;20517;-74
2022/04/13 05:20:53;;;;;;;4.07;2.83;;;15.70;61.10;;;-142.21;97.93;112049.66;5052664;28;20448;-74
2022/04/13 05:23:20;;;;;;;3.20;2.80;;;15.70;61.00;;;-142.21;98.19;112049.66;5051978;28;20523;-74
2022/04/13 05:25:48;;;;;;;8.80;3.20;;;15.70;61.10;;;-142.21;98.33;112049.66;5058209;28;20448;-74
2022/04/13 05:28:16;;;;;;;7.67;2.83;;;15.70;61.40;;;-142.21;97.94;112049.66;5063053;28;20843;-75
2022/04/13 05:30:43;;;;;;;3.03;2.50;;;15.70;61.40;;;-142.21;98.13;112049.66;5072823;28;20466;-74
2022/04/13 05:33:12;;;;;;;4.70;2.90;;;15.70;61.10;;;-142.21;98.20;112049.66;5064022;28;20948;-74
2022/04/13 05:35:39;;;;;;;4.60;2.60;;;15.70;61.10;;;-142.21;98.42;112049.66;5061074;28;20994;-74
2022/04/13 05:38:07;;;;;;;3.77;3.00;;;15.80;61.10;;;-142.21;98.81;112049.66;5070167;28;20779;-74
2022/04/13 05:40:34;;;;;;;4.03;2.77;;;15.90;61.20;;;-142.21;99.08;112049.66;5063667;28;20483;-74
2022/04/13 05:43:03;;;;;;;3.47;2.80;;;16.00;61.70;;;-142.21;99.42;112049.66;5065187;28;20451;-74
2022/04/13 05:45:30;;;;;;;5.80;3.27;;;16.00;61.30;;;-142.21;100.00;112049.66;5052049;28;20457;-74
2022/04/13 05:47:58;;;;;;;3.83;3.37;;;16.10;61.60;;;-142.21;99.78;112049.66;5071675;28;20440;-73
2022/04/13 05:50:25;;;;;;;4.40;2.60;;;16.10;61.40;;;-142.21;99.47;112049.66;5071793;28;20474;-74
2022/04/13 05:52:52;;;;;;;4.17;3.10;;;16.20;61.10;;;-142.21;99.20;112049.66;5052658;28;20523;-74
2022/04/13 05:55:19;;;;;;;3.80;2.90;;;16.30;60.80;;;-142.21;100.00;112049.66;5058019;28;20466;-74
2022/04/13 05:57:47;;;;;;;4.20;2.70;;;16.40;61.20;;;-142.21;98.49;112049.66;5051885;28;20792;-72
2022/04/13 06:00:17;;;;;;;3.93;3.20;;;16.50;61.10;;;-142.21;98.11;112049.66;5052518;28;20452;-74
2022/04/13 06:02:44;;;;;;;5.53;3.77;;;16.50;61.20;;;-142.21;98.33;112049.66;5051242;28;20462;-74
2022/04/13 06:05:12;;;;;;;5.90;3.70;;;16.70;61.20;;;-142.21;99.44;112049.66;5060469;28;20848;-74
2022/04/13 06:07:41;;;;;;;5.93;3.43;;;16.70;61.10;;;-142.21;99.76;112049.66;5051513;28;20554;-74
2022/04/13 06:10:11;;;;;;;5.00;3.37;;;16.80;61.20;;;-142.21;99.68;112049.66;5052609;28;20993;-75
2022/04/13 06:12:38;;;;;;;3.30;3.00;;;16.80;60.70;;;-142.21;99.07;112049.66;5050042;28;20517;-73
2022/04/13 06:15:07;;;;;;;6.47;3.30;;;16.90;60.60;;;-142.21;100.00;112049.66;5050241;28;20445;-75
2022/04/13 06:17:39;;;;;;;4.63;3.57;;;17.00;60.90;;;-142.21;100.00;112049.66;5058385;28;20528;-74
2022/04/13 06:20:08;;;;;;;4.80;3.40;;;17.00;61.40;;;-142.21;99.74;112049.66;5071474;28;20843;-74
2022/04/13 06:22:40;;;;;;;5.33;3.60;;;17.10;60.10;;;-142.21;99.60;112049.66;5069018;28;20457;-74
2022/04/13 06:25:10;;;;;;;4.67;3.47;;;17.20;60.50;;;-142.21;100.00;112049.66;5054533;28;20475;-75
2022/04/13 06:27:37;;;;;;;4.93;3.57;;;17.40;61.20;;;-142.21;100.00;112049.66;5060586;28;20534;-75
2022/04/13 06:30:07;;;;;;;7.40;3.47;;;17.40;60.80;;;-142.21;100.00;112049.66;5061060;28;20450;-75
2022/04/13 06:32:37;;;;;;;4.60;3.50;;;17.50;59.60;;;-142.21;100.00;112049.66;5053011;28;20451;-74
2022/04/13 06:35:07;;;;;;;5.73;3.87;;;17.60;60.50;;;-142.21;100.00;112049.66;5056178;28;20539;-74
2022/04/13 06:37:35;;;;;;;5.20;3.47;;;17.70;59.50;;;-142.21;100.00;112049.66;5056736;28;20494;-74
2022/04/13 06:40:02;;;;;;;3.93;3.10;;;17.80;59.80;;;-142.21;100.00;112049.66;5055221;28;20493;-74
2022/04/13 06:42:33;;;;;;;7.50;3.67;;;17.90;59.30;;;-142.21;100.00;112049.66;5054935;28;20452;-74
2022/04/13 06:45:00;;;;;;;5.83;3.20;;;18.00;59.00;;;-142.21;99.77;112049.66;5053085;28;20507;-74
2022/04/13 06:47:29;;;;;;;6.30;4.00;;;18.10;58.90;;;-142.21;99.27;112049.66;5065556;28;20482;-73
2022/04/13 06:49:58;;;;;;;4.00;3.53;;;18.30;58.80;;;-142.21;98.31;112049.66;5055516;28;20853;-73
2022/04/13 06:52:25;;;;;;;6.73;3.47;;;18.50;58.30;;;-142.21;99.12;112049.66;5054717;28;20433;-75
2022/04/13 06:54:52;;;;;;;4.60;3.90;;;18.60;58.10;;;-142.21;98.37;112049.66;5055582;28;20514;-75
2022/04/13 06:57:20;;;;;;;4.70;3.07;;;18.70;57.70;;;-142.21;97.79;112049.66;5057805;28;20454;-75
2022/04/13 06:59:47;;;;;;;5.47;3.17;;;18.80;57.60;;;-142.21;99.35;112049.66;5062788;28;20525;-75
2022/04/13 07:02:14;;;;;;;3.10;2.80;;;18.90;57.50;;;-142.21;97.85;112049.66;5054334;28;20452;-75
2022/04/13 07:04:41;;;;;;;3.63;2.90;;;19.00;57.10;;;-142.21;96.74;112049.66;5059382;28;20479;-73
2022/04/13 07:07:10;;;;;;;5.30;2.73;;;19.10;56.70;;;-142.21;95.77;112049.66;5067655;28;20749;-73
2022/04/13 07:09:37;;;;;;;4.27;3.20;;;19.20;56.30;;;-142.21;95.47;112049.66;5064802;28;20304;-73
2022/04/13 07:12:05;;;;;;;4.10;2.80;;;19.30;56.90;;;-142.21;97.24;112049.66;5074439;28;20485;-74
2022/04/13 07:14:33;;;;;;;3.27;2.97;;;19.40;56.60;;;-142.21;97.16;112049.66;5073931;28;20227;-74
2022/04/13 07:17:00;;;;;;;4.00;3.13;;;19.50;56.20;;;-142.21;95.74;112049.66;5075359;28;20209;-73
2022/04/13 07:19:27;;;;;;;4.53;2.90;;;19.50;55.70;;;-142.21;97.22;112049.66;5066088;28;20205;-74
2022/04/13 07:21:54;;;;;;;4.10;3.07;;;19.70;56.30;;;-142.21;95.48;112049.66;5054365;28;20448;-74
2022/04/13 07:24:23;;;;;;;3.87;3.30;;;19.80;55.40;;;-142.21;94.95;112049.66;5058173;28;20300;-74
2022/04/13 07:26:50;;;;;;;3.70;3.20;;;19.90;55.20;;;-142.21;94.88;112049.66;5074860;28;20303;-74
2022/04/13 07:29:17;;;;;;;4.90;3.60;;;20.00;55.00;;;-142.21;94.15;112049.66;5068210;28;20221;-74
2022/04/13 07:31:44;;;;;;;5.73;3.07;;;20.10;54.90;;;-142.21;96.01;112049.66;5054551;28;20297;-73
2022/04/13 07:34:11;;;;;;;4.27;3.03;;;20.20;55.20;;;-142.21;93.82;112049.66;5053723;28;20202;-74
2022/04/13 07:36:38;;;;;;;5.97;3.00;;;20.30;54.00;;;-142.21;92.13;112049.66;5055427;28;20276;-74
2022/04/13 07:39:06;;;;;;;6.77;2.93;;;20.40;53.40;;;-142.21;91.26;112049.66;5053696;28;20206;-74
2022/04/13 07:41:34;;;;;;;3.23;2.73;;;20.50;52.80;;;-142.21;91.33;112049.66;5053374;28;20206;-74
2022/04/13 07:44:02;;;;;;;4.03;2.97;;;20.70;53.30;;;-142.21;90.57;112049.66;5054372;28;20705;-75
2022/04/13 07:46:29;;;;;;;2.97;2.67;;;20.80;52.50;;;-142.21;90.26;112049.66;5054366;28;20288;-74
2022/04/13 07:48:57;;;;;;;3.53;3.10;;;21.00;52.30;;;-142.21;89.38;112049.66;5057032;28;20280;-75
2022/04/13 07:51:24;;;;;;;4.20;2.70;;;21.10;51.50;;;-142.21;89.89;112049.66;5073680;28;20236;-74
2022/04/13 07:53:51;;;;;;;4.67;3.03;;;21.30;52.00;;;-142.21;89.03;112049.66;5053996;28;20293;-74
2022/04/13 07:56:19;;;;;;;5.37;3.10;;;21.40;50.50;;;-142.21;88.46;112049.66;5053866;28;20280;-74
2022/04/13 07:58:47;;;;;;;8.47;2.47;;;21.50;51.10;;;-142.21;88.23;112049.66;5054629;28;20229;-73
2022/04/13 08:01:15;;;;;;;2.93;2.63;;;21.60;50.40;;;-142.21;85.73;112049.66;5058910;28;20285;-74
2022/04/13 08:03:42;;;;;;;4.30;2.63;;;21.60;49.60;;;-142.21;85.96;112049.66;5054057;28;20217;-74
2022/04/13 08:06:11;;;;;;;3.13;2.47;;;21.60;49.40;;;-142.21;84.82;112049.66;5055011;28;20218;-74
2022/04/13 08:08:38;;;;;;;3.33;2.43;;;21.80;49.20;;;-142.21;84.09;112049.66;5054319;28;20233;-74
2022/04/13 08:11:05;;;;;;;6.23;2.70;;;21.80;49.00;;;-142.21;83.85;112049.66;5053295;28;20534;-74
2022/04/13 08:13:33;;;;;;;3.93;2.80;;;21.90;48.20;;;-142.21;83.96;112049.66;5053767;28;20233;-73
2022/04/13 08:16:01;;;;;;;5.00;3.27;;;21.90;48.60;;;-142.21;86.04;112049.66;5057099;28;20198;-73
2022/04/13 08:18:29;;;;;;;3.30;2.83;;;22.10;50.00;;;-142.21;84.88;112049.66;5074216;28;20232;-73
2022/04/13 08:20:56;;;;;;;3.40;2.10;;;22.20;48.40;;;-142.21;83.42;112049.66;5056270;28;20251;-73
2022/04/13 08:23:23;;;;;;;3.70;2.40;;;22.40;48.50;;;-142.21;84.09;112049.66;5054270;28;20209;-74
2022/04/13 08:25:50;;;;;;;2.50;2.10;;;22.50;48.70;;;-142.21;82.58;112049.66;5053628;28;20317;-74
2022/04/13 08:28:17;;;;;;;4.60;2.50;;;22.60;48.60;;;-142.21;84.68;112049.66;5053262;28;20252;-74
2022/04/13 08:30:44;;;;;;;2.67;2.20;;;22.80;49.40;;;-142.21;85.55;112049.66;5063956;28;20285;-74
2022/04/13 08:33:13;;;;;;;3.53;2.33;;;22.80;50.00;;;-142.21;81.95;112049.66;5053512;28;20623;-74
2022/04/13 08:35:40;;;;;;;5.63;2.50;;;22.90;48.70;;;-142.21;81.95;112049.66;5053751;28;20722;-74
2022/04/13 08:38:08;;;;;;;4.63;2.40;;;22.90;48.40;;;-142.21;81.13;112049.66;5055326;28;20585;-73
2022/04/13 08:40:46;;;;;;;2.90;2.30;;;23.00;47.70;;;-142.21;83.14;112049.66;5072926;28;20201;-74
2022/04/13 08:43:19;;;;;;;3.50;2.20;;;23.10;47.50;;;-142.21;80.47;112049.66;5072772;28;20196;-74
2022/04/13 08:45:55;;;;;;;2.90;2.10;;;23.20;46.50;;;-142.21;79.24;112049.66;5073809;28;20213;-74
2022/04/13 08:48:27;;;;;;;4.73;2.07;;;23.40;46.00;;;-142.21;76.70;112049.66;5072218;28;20200;-74
2022/04/13 08:51:00;;;;;;;2.30;1.70;;;23.50;45.60;;;-142.21;76.85;112049.66;5053013;28;20193;-74
2022/04/13 08:53:31;;;;;;;3.77;1.97;;;23.60;44.60;;;-142.21;73.27;112049.66;5057709;28;20284;-75
2022/04/13 08:56:01;;;;;;;3.53;2.00;;;24.00;45.80;;;-142.21;71.41;112049.66;5054851;28;20248;-75
2022/04/13 08:58:41;;;;;;;2.57;1.70;;;24.50;43.30;;;-142.21;72.00;112049.66;5068008;28;20284;-73
2022/04/13 09:01:21;;;;;;;1.80;1.63;;;25.20;41.10;;;-142.21;70.09;112049.66;5058647;28;20557;-73
2022/04/13 09:03:55;;;;;;;2.07;1.60;;;25.80;41.30;;;-142.21;69.36;112049.66;5051512;28;20213;-73
2022/04/13 09:06:25;;;;;;;1.83;1.70;;;26.50;39.50;;;-142.21;65.48;112049.66;5051912;28;20211;-75
2022/04/13 09:08:55;;;;;;;3.07;1.90;;;27.20;39.80;;;-142.21;68.96;112049.66;5060078;28;20219;-73
2022/04/13 09:11:23;;;;;;;2.80;1.70;;;27.90;39.30;;;-142.21;70.36;112049.66;5048548;28;20213;-75
2022/04/13 09:13:51;;;;;;;2.00;1.60;;;28.60;38.90;;;-142.21;67.47;112049.66;5052159;28;20692;-74
2022/04/13 09:16:19;;;;;;;3.23;1.70;;;29.20;35.90;;;-142.21;64.67;112049.66;5052304;28;20211;-74
2022/04/13 09:18:49;;;;;;;3.07;2.00;;;29.60;35.70;;;-142.21;59.45;112049.66;5054837;28;20240;-75
2022/04/13 09:21:18;;;;;;;3.33;2.30;;;30.20;35.30;;;-142.21;63.86;112049.66;5055981;28;20252;-74
2022/04/13 09:23:45;;;;;;;2.70;2.03;;;30.80;34.80;;;-142.21;63.16;112049.66;5068546;28;20247;-75
2022/04/13 09:26:15;;;;;;;2.20;1.90;;;31.20;35.70;;;-142.21;60.28;112049.66;5053210;28;20708;-73
2022/04/13 09:28:43;;;;;;;3.10;1.80;;;31.50;34.90;;;-142.21;60.42;112049.66;5051818;28;20206;-74
2022/04/13 09:31:11;;;;;;;2.43;1.70;;;31.80;30.90;;;-142.21;59.67;112049.66;5051432;28;20208;-75
2022/04/13 09:33:38;;;;;;;2.00;1.80;;;31.50;32.60;;;-142.21;57.84;112049.66;5051822;28;20239;-74
2022/04/13 09:36:07;;;;;;;4.67;2.17;;;31.30;32.10;;;-142.21;57.79;112049.66;5051985;28;20190;-74
2022/04/13 09:38:36;;;;;;;2.30;1.90;;;31.10;34.00;;;-142.21;45.29;112049.66;5051487;28;20588;-73
2022/04/13 09:41:11;;;;;;;3.53;1.80;;;30.60;32.30;;;-142.21;62.60;112049.66;5051722;28;20654;-75
2022/04/13 09:43:39;;;;;;;2.23;1.73;;;30.00;32.70;;;-142.21;59.84;112049.66;5051709;28;20201;-74
2022/04/13 09:46:08;;;;;;;2.40;2.00;;;29.70;32.30;;;-142.21;55.30;112049.66;5051846;28;20217;-74
2022/04/13 09:48:35;;;;;;;4.93;1.80;;;29.40;33.70;;;-142.21;63.78;112049.66;5052178;28;20200;-74
2022/04/13 09:51:03;;;;;;;4.13;1.90;;;29.20;33.60;;;-142.21;59.92;112049.66;5051660;28;20573;-74
2022/04/13 09:53:32;;;;;;;4.93;2.10;;;29.10;33.50;;;-142.21;58.88;112049.66;5052018;28;20258;-75
2022/04/13 09:56:00;;;;;;;2.80;1.93;;;28.80;32.80;;;-142.21;51.38;112049.66;5051174;28;20235;-75
2022/04/13 09:58:30;;;;;;;2.90;1.90;;;28.70;34.00;;;-142.21;55.94;112049.66;5052424;28;20200;-74
2022/04/13 10:01:00;;;;;;;6.63;2.20;;;28.60;34.20;;;-142.21;56.64;112049.66;5051996;28;20302;-74
2022/04/13 10:03:28;;;;;;;5.87;1.63;;;28.60;34.40;;;-142.21;56.34;112049.66;5057421;28;20637;-74
2022/04/13 10:05:58;;;;;;;2.67;1.63;;;28.50;33.20;;;-142.21;54.26;112049.66;5055581;28;20228;-74